Latest Weather Observations for Canterbury

IDN60901

Issued at 1:32 am EDT Monday 27 February 2017 (issued every 10 minutes, with the page automatically refreshed every 10 minutes)

About weather observations | Map of Sydney area stations | Latest observations for Sydney area | Other Formats
Station Details ID: 066194 Name: CANTERBURY RACECOURSE AWS Lat: -33.91 Lon: 151.11 Height: 3.0 m
Data from the previous 72 hours. | See also: Recent months at Canterbury
Date/Time
EDT
Temp
°C
App
Temp
°C
Dew
Point
°C
Rel
Hum
%
Delta-T
°C
Wind Press
QNH
hPa
Press
MSL
hPa
Rain since
9am
mm
Dir  Spd
km/h
Gust
km/h
Spd
kts
Gust
kts
27/01:30am 18.4 19.2 17.4 94 0.6 SSW 9 17 5 9 - - 6.8
27/01:20am 18.4 18.8 17.2 93 0.7 SW 11 17 6 9 - - 5.4
27/01:19am 18.4 18.8 17.2 93 0.7 SW 11 17 6 9 - - 5.4
27/01:00am 18.3 19.0 17.0 92 0.8 SSW 9 15 5 8 - - 5.2
27/12:30am 18.1 18.4 17.0 93 0.7 SSW 11 15 6 8 - - 5.0
27/12:10am 18.2 18.5 17.0 93 0.7 SSW 11 20 6 11 - - 5.0
27/12:00am 18.2 18.1 17.0 93 0.7 SSW 13 20 7 11 - - 5.0
 
Date/Time
EDT
Temp
°C
App
Temp
°C
Dew
Point
°C
Rel
Hum
%
Delta-T
°C
Wind Press
QNH
hPa
Press
MSL
hPa
Rain since
9am
mm
Dir  Spd
km/h
Gust
km/h
Spd
kts
Gust
kts
26/11:30pm 18.5 18.0 17.0 91 0.9 S 15 24 8 13 - - 1.6
26/11:03pm 19.3 18.6 16.3 83 1.8 SSW 15 26 8 14 - - 0.0
26/11:00pm 19.6 18.9 16.3 81 2.0 SSW 15 26 8 14 - - 0.0
26/10:30pm 20.2 19.7 15.8 76 2.6 SSW 13 24 7 13 - - 0.0
26/10:00pm 20.5 19.5 14.6 69 3.4 SSW 13 20 7 11 - - 0.0
26/09:30pm 20.8 19.2 14.9 69 3.5 S 17 30 9 16 - - 0.0
26/09:00pm 21.4 19.4 13.8 62 4.4 S 17 33 9 18 - - 0.0
26/08:30pm 21.7 19.3 12.8 57 5.1 SSE 17 28 9 15 - - 0.0
26/08:00pm 21.8 19.1 12.9 57 5.1 SSE 19 32 10 17 - - 0.0
26/07:30pm 21.9 18.3 13.0 57 5.1 SSE 24 43 13 23 - - 0.0
26/07:00pm 22.3 19.5 13.1 56 5.3 SSE 20 28 11 15 - - 0.0
26/06:30pm 22.3 19.5 13.1 56 5.3 SSE 20 30 11 16 - - 0.0
26/06:00pm 22.2 18.8 12.5 54 5.5 S 22 37 12 20 - - 0.0
26/05:30pm 23.0 20.0 12.6 52 5.9 SSE 20 32 11 17 - - 0.0
26/05:00pm 23.2 19.9 12.8 52 6.0 SSE 22 39 12 21 - - 0.0
26/04:30pm 23.7 20.8 13.0 51 6.2 SSE 20 37 11 20 - - 0.0
26/04:00pm 23.6 19.6 12.9 51 6.2 SSE 26 39 14 21 - - 0.0
26/03:30pm 24.0 21.7 14.7 56 5.5 SSE 20 33 11 18 - - 0.0
26/03:00pm 24.3 21.5 14.4 54 5.9 S 22 32 12 17 - - 0.0
26/02:30pm 24.0 21.3 14.7 56 5.5 SSE 22 33 12 18 - - 0.0
26/02:00pm 23.6 20.5 14.6 57 5.3 SSE 24 39 13 21 - - 0.0
26/01:30pm 23.1 20.2 14.1 57 5.3 S 22 32 12 17 - - 0.0
26/01:00pm 23.0 19.8 13.2 54 5.7 S 22 37 12 20 - - 0.0
26/12:30pm 22.9 20.5 13.7 56 5.3 SSE 19 30 10 16 - - 0.0
26/12:00pm 22.7 19.9 14.3 59 4.9 SSE 22 41 12 22 - - 0.0
26/11:30am 22.2 19.9 14.1 60 4.7 SSE 19 33 10 18 - - 0.0
26/11:00am 22.3 20.1 14.4 61 4.6 SSE 19 30 10 16 - - 0.0
26/10:30am 22.0 18.7 13.9 60 4.7 SSE 24 35 13 19 - - 0.0
26/10:00am 21.9 19.6 14.0 61 4.6 SSE 19 28 10 15 - - 0.0
26/09:30am 22.0 19.9 14.6 63 4.4 SSE 19 32 10 17 - - 0.0
26/09:00am 21.2 20.4 15.1 68 3.6 SSE 13 19 7 10 - - 38.4
26/08:30am 20.5 20.0 14.8 70 3.3 SSE 11 15 6 8 - - 38.4
26/08:00am 19.6 19.6 15.3 76 2.5 SSE 9 19 5 10 - - 38.4
26/07:30am 18.5 18.3 15.7 84 1.7 SSE 11 17 6 9 - - 38.4
26/07:00am 17.8 20.1 16.7 93 0.7 CALM 0 0 0 0 - - 38.4
26/06:30am 17.9 18.9 16.8 93 0.7 NW 7 9 4 5 - - 38.4
26/06:00am 18.1 19.2 17.0 93 0.7 WNW 7 13 4 7 - - 38.4
26/05:30am 18.2 20.5 16.7 91 0.9 CALM 0 2 0 1 - - 38.4
26/05:28am 18.3 20.5 16.6 90 1.0 CALM 0 7 0 4 - - 38.4
26/05:00am 18.8 19.0 16.8 88 1.2 SSE 11 17 6 9 - - 37.4
26/04:44am 18.9 19.2 16.9 88 1.2 SSE 11 13 6 7 - - 37.0
26/04:39am 18.9 19.5 16.7 87 1.3 SSE 9 17 5 9 - - 36.8
26/04:30am 18.9 19.2 16.9 88 1.2 SSE 11 17 6 9 - - 36.6
26/04:25am 18.7 19.8 17.0 90 1.0 S 7 15 4 8 - - 36.4
26/04:21am 18.7 19.8 17.2 91 0.9 SSW 7 11 4 6 - - 36.2
26/04:00am 19.1 17.8 16.9 87 1.3 ESE 19 30 10 16 - - 35.8
26/03:30am 18.3 20.4 17.3 94 0.6 NNW 2 7 1 4 - - 32.0
26/03:00am 18.2 18.9 17.0 93 0.7 NW 9 17 5 9 - - 31.0
26/02:30am 18.5 19.6 17.0 91 0.9 SW 7 11 4 6 - - 29.6
26/02:00am 18.8 19.3 17.5 92 0.8 NE 11 19 6 10 - - 25.8
26/01:30am 19.0 19.7 18.0 94 0.6 ENE 11 22 6 12 - - 20.0
26/01:00am 19.2 19.9 17.9 92 0.8 ESE 11 19 6 10 - - 3.0
26/12:40am 19.6 20.4 18.1 91 0.9 SSE 11 19 6 10 - - 1.6
26/12:30am 19.3 20.6 17.6 90 1.0 SW 7 13 4 7 - - 1.4
26/12:00am 18.9 20.9 17.0 89 1.1 WSW 2 7 1 4 - - 1.4
 
Date/Time
EDT
Temp
°C
App
Temp
°C
Dew
Point
°C
Rel
Hum
%
Delta-T
°C
Wind Press
QNH
hPa
Press
MSL
hPa
Rain since
9am
mm
Dir  Spd
km/h
Gust
km/h
Spd
kts
Gust
kts
25/11:30pm 19.0 20.2 16.8 87 1.3 SW 6 9 3 5 - - 1.4
25/11:00pm 19.2 20.2 16.4 84 1.7 WSW 6 9 3 5 - - 1.4
25/10:30pm 18.6 20.5 16.6 88 1.2 SW 2 9 1 5 - - 1.4
25/10:00pm 18.5 20.8 16.7 89 1.1 CALM 0 0 0 0 - - 1.4
25/09:30pm 18.4 20.5 16.2 87 1.3 CALM 0 0 0 0 - - 1.4
25/09:00pm 18.9 21.2 16.7 87 1.3 CALM 0 6 0 3 - - 1.4
25/08:53pm 18.9 20.4 16.7 87 1.3 SW 4 9 2 5 - - 1.4
25/08:36pm 19.0 19.9 16.6 86 1.4 SW 7 13 4 7 - - 1.4
25/08:30pm 19.0 20.0 16.8 87 1.3 WSW 7 9 4 5 - - 1.4
25/08:00pm 18.9 21.2 16.7 87 1.3 CALM 0 6 0 3 - - 1.4
25/07:44pm 18.8 19.8 16.8 88 1.2 SW 7 15 4 8 - - 1.4
25/07:30pm 19.0 20.2 17.3 90 1.0 SSE 7 11 4 6 - - 1.2
25/07:00pm 19.1 19.7 16.7 86 1.4 SSE 9 17 5 9 - - 0.4
25/06:46pm 19.5 18.7 16.2 81 2.0 S 15 28 8 15 - - 0.2
25/06:30pm 19.7 18.4 15.8 78 2.3 S 17 30 9 16 - - 0.2
25/06:00pm 19.9 18.0 15.3 75 2.7 S 19 28 10 15 - - 0.2
25/05:30pm 19.6 18.6 15.5 77 2.4 S 15 26 8 14 - - 0.2
25/05:00pm 19.7 17.9 15.6 77 2.4 S 19 33 10 18 - - 0.2
25/04:40pm 19.6 17.3 15.7 78 2.3 S 22 33 12 18 - - 0.2
25/04:30pm 19.4 17.9 16.2 82 1.9 S 19 32 10 17 - - 0.2
25/04:15pm 19.7 18.0 16.2 80 2.1 SSE 20 30 11 16 - - 0.0
25/04:00pm 20.4 18.4 15.4 73 3.0 S 20 35 11 19 - - 0.0
25/03:43pm 20.5 18.9 15.9 75 2.7 S 19 32 10 17 - - 0.0
25/03:30pm 19.3 17.5 16.0 81 2.0 S 20 33 11 18 - - 0.0
25/03:00pm 19.2 17.9 15.9 81 2.0 S 17 24 9 13 - - 0.0
25/02:50pm 19.7 18.2 15.4 76 2.5 S 17 28 9 15 - - 0.0
25/02:30pm 20.5 18.7 15.5 73 3.0 S 19 30 10 16 - - 0.0
25/02:00pm 20.1 18.3 15.5 75 2.7 S 19 28 10 15 - - 0.0
25/01:30pm 19.7 17.0 15.6 77 2.4 S 24 37 13 20 - - 0.0
25/01:00pm 19.8 18.0 15.9 78 2.3 S 20 33 11 18 - - 0.0
25/12:36pm 19.8 17.7 16.3 80 2.1 S 22 35 12 19 - - 0.0
25/12:30pm 19.5 17.0 16.2 81 2.0 S 24 35 13 19 - - 0.0
25/12:23pm 19.3 17.6 16.2 82 1.9 S 20 33 11 18 - - 0.0
25/12:21pm 19.3 17.6 16.2 82 1.9 S 20 33 11 18 - - 0.0
25/12:07pm 19.5 17.9 16.5 83 1.8 S 20 39 11 21 - - 0.0
25/12:01pm 19.4 18.2 16.1 81 2.0 S 17 28 9 15 - - 0.0
25/12:00pm 19.4 18.1 15.9 80 2.1 S 17 28 9 15 - - 0.0
25/11:49am 19.1 17.3 16.0 82 1.8 S 20 39 11 21 - - 0.0
25/11:42am 19.0 17.3 15.7 81 2.0 S 19 39 10 21 - - 0.0
25/11:30am 18.8 17.1 16.2 85 1.5 S 20 30 11 16 - - 0.0
25/11:00am 18.7 17.5 16.1 85 1.5 S 17 33 9 18 - - 0.0
25/10:30am 18.7 16.1 15.9 84 1.7 S 24 37 13 20 - - 0.0
25/10:24am 18.7 16.1 15.8 83 1.7 S 24 35 13 19 - - 0.0
25/10:00am 19.0 17.2 15.9 82 1.8 S 20 37 11 20 - - 0.0
25/09:30am 19.1 16.6 16.1 83 1.8 S 24 37 13 20 - - 0.0
25/09:00am 19.1 17.6 16.3 84 1.7 S 19 33 10 18 - - 2.2
25/08:30am 18.7 17.0 16.3 86 1.4 S 20 39 11 21 - - 2.2
25/08:10am 18.6 17.0 16.6 88 1.2 S 20 37 11 20 - - 2.2
25/08:00am 18.6 17.2 16.9 90 1.0 S 20 35 11 19 - - 2.2
25/07:30am 18.7 17.5 17.0 90 1.0 S 19 32 10 17 - - 2.2
25/07:00am 18.8 17.5 16.9 89 1.1 S 19 35 10 19 - - 2.2
25/06:30am 18.6 17.1 16.8 89 1.1 S 20 33 11 18 - - 2.2
25/06:00am 18.5 17.2 16.7 89 1.1 S 19 39 10 21 - - 2.2
25/05:30am 18.8 17.9 16.9 89 1.1 S 17 32 9 17 - - 2.2
25/05:00am 19.0 17.9 17.3 90 1.0 S 19 35 10 19 - - 2.2
25/04:30am 19.2 18.3 17.7 91 0.9 S 19 32 10 17 - - 2.2
25/04:14am 19.0 18.8 17.5 91 0.9 S 15 24 8 13 - - 2.2
25/04:00am 19.1 18.6 17.8 92 0.8 S 17 28 9 15 - - 2.0
25/03:34am 19.6 18.5 17.7 89 1.2 S 20 37 11 20 - - 0.8
25/03:30am 19.6 18.6 17.6 88 1.2 S 19 32 10 17 - - 0.4
25/03:02am 20.1 19.3 17.9 87 1.4 S 19 28 10 15 - - 0.2
25/03:00am 20.2 19.3 17.8 86 1.5 S 19 28 10 15 - - 0.2
25/02:30am 20.6 20.0 17.6 83 1.8 S 17 30 9 16 - - 0.2
25/02:00am 20.7 20.5 17.7 83 1.8 SSW 15 28 8 15 - - 0.2
25/01:30am 21.2 21.9 18.0 82 2.0 S 11 19 6 10 - - 0.2
25/01:26am 21.2 21.9 18.0 82 2.0 S 11 19 6 10 - - 0.2
25/01:10am 21.5 22.4 18.3 82 2.0 SSW 11 17 6 9 - - 0.2
25/01:00am 21.9 21.8 17.9 78 2.5 S 15 28 8 15 - - 0.0
25/12:30am 22.0 22.8 18.2 79 2.4 SSE 11 20 6 11 - - 0.0
25/12:00am 22.2 22.0 18.4 79 2.4 SSE 17 24 9 13 - - 0.0
 
Date/Time
EDT
Temp
°C
App
Temp
°C
Dew
Point
°C
Rel
Hum
%
Delta-T
°C
Wind Press
QNH
hPa
Press
MSL
hPa
Rain since
9am
mm
Dir  Spd
km/h
Gust
km/h
Spd
kts
Gust
kts
24/11:30pm 22.8 23.8 18.6 77 2.6 SE 11 22 6 12 - - 0.0
24/11:00pm 22.8 24.2 18.6 77 2.6 SW 9 13 5 7 - - 0.0
24/10:30pm 22.7 23.7 18.7 78 2.5 S 11 17 6 9 - - 0.0
24/10:00pm 22.7 23.4 18.9 79 2.4 SSE 13 20 7 11 - - 0.0
24/09:30pm 22.7 23.0 18.7 78 2.5 SSE 15 20 8 11 - - 0.0
24/09:00pm 22.8 24.0 19.0 79 2.4 SSE 11 19 6 10 - - 0.0
24/08:30pm 22.6 23.4 19.0 80 2.3 SSE 13 22 7 12 - - 0.0
24/08:00pm 22.7 22.8 19.1 80 2.3 SSE 17 24 9 13 - - 0.0
24/07:30pm 22.9 23.1 19.3 80 2.3 SSE 17 26 9 14 - - 0.0
24/07:00pm 23.6 23.9 19.5 78 2.6 S 17 26 9 14 - - 0.0
24/06:30pm 23.9 24.2 19.6 77 2.8 SSE 17 28 9 15 - - 0.0
24/06:00pm 24.1 23.7 19.4 75 3.0 SE 20 32 11 17 - - 0.0
24/05:30pm 24.9 24.6 19.1 70 3.7 SE 19 26 10 14 - - 0.0
24/05:00pm 25.6 25.0 18.8 66 4.3 SE 20 26 11 14 - - 0.0
24/04:30pm 26.4 26.8 19.8 67 4.3 ESE 17 20 9 11 - - 0.0
24/04:00pm 24.7 24.9 18.6 69 3.9 SE 15 22 8 12 - - 0.0
24/03:30pm 24.8 25.4 18.7 69 3.9 SE 13 20 7 11 - - 0.0
24/03:00pm 25.3 24.9 19.0 68 4.0 SE 19 28 10 15 - - 0.0
24/02:30pm 25.2 24.7 18.6 67 4.2 SE 19 28 10 15 - - 0.0
24/02:00pm 24.9 24.5 18.1 66 4.3 SE 17 24 9 13 - - 0.0
24/01:30pm 25.0 25.0 18.0 65 4.4 ESE 15 24 8 13 - - 0.0
24/01:00pm 26.0 26.2 19.4 67 4.3 ESE 17 24 9 13 - - 0.0
24/12:30pm 25.6 25.9 18.8 66 4.3 ESE 15 22 8 12 - - 0.0
24/12:00pm 26.2 27.1 20.1 69 4.0 ESE 15 20 8 11 - - 0.0
24/11:30am 25.2 26.1 19.3 70 3.8 ESE 13 20 7 11 - - 0.0
24/11:00am 25.0 26.3 19.4 71 3.6 E 11 19 6 10 - - 0.0
24/10:30am 24.9 26.2 19.3 71 3.6 SSE 11 19 6 10 - - 0.0
24/10:00am 24.0 24.4 19.1 74 3.1 SE 15 19 8 10 - - 0.0
24/09:30am 23.3 24.5 19.0 77 2.7 SE 11 17 6 9 - - 0.0
24/09:00am 23.4 25.2 19.5 79 2.5 SE 9 15 5 8 - - 0.0
24/08:30am 22.7 24.1 19.5 82 2.0 SSE 11 19 6 10 - - 0.0
24/08:00am 22.4 23.7 19.4 83 1.9 SE 11 17 6 9 - - 0.0
24/07:30am 21.3 22.5 19.0 87 1.4 ESE 11 17 6 9 - - 0.0
24/07:00am 20.3 22.0 19.3 94 0.6 SE 9 13 5 7 - - 0.0
24/06:30am 18.9 21.5 17.6 92 0.8 CALM 0 6 0 3 - - 0.0
24/06:00am 19.1 21.4 17.8 92 0.8 SSE 2 7 1 4 - - 0.0
24/05:30am 19.0 20.3 17.5 91 0.9 ESE 7 11 4 6 - - 0.0
24/05:00am 18.7 21.3 17.4 92 0.8 CALM 0 0 0 0 - - 0.0
24/04:30am 18.6 21.0 17.1 91 0.9 CALM 0 0 0 0 - - 0.0
24/04:00am 18.7 21.0 16.7 88 1.2 CALM 0 0 0 0 - - 0.0
24/03:30am 19.2 21.1 16.6 85 1.6 SSE 2 6 1 3 - - 0.0
24/03:00am 19.7 21.3 17.8 89 1.2 SE 6 11 3 6 - - 0.0
24/02:30am 19.3 21.7 17.1 87 1.3 CALM 0 0 0 0 - - 0.0
24/02:00am 19.8 22.4 17.4 86 1.5 CALM 0 0 0 0 - - 0.0

Latest Capital City Observations: Canberra | Sydney | Melbourne | Brisbane | Adelaide | Perth | Hobart | Darwin

Other Formats:

Comma delimited format used in spreadsheet applications
http://www.bom.gov.au/fwo/IDN60901/IDN60901.94766.axf

JavaScript Object Notation format (JSON) in row-major order
http://www.bom.gov.au/fwo/IDN60901/IDN60901.94766.json